sensor_id;sensor_type;location;lat;lon;timestamp;pressure;altitude;pressure_sealevel;temperature;humidity
78407;BME280;67692;51.074;-1.790;2023-08-08T00:01:12;101287.84;;;15.21;67.81
78407;BME280;67692;51.074;-1.790;2023-08-08T00:03:39;101282.63;;;15.21;67.38
78407;BME280;67692;51.074;-1.790;2023-08-08T00:06:05;101268.00;;;15.18;67.74
78407;BME280;67692;51.074;-1.790;2023-08-08T00:08:33;101269.47;;;15.11;68.22
78407;BME280;67692;51.074;-1.790;2023-08-08T00:11:00;101271.81;;;15.14;68.08
78407;BME280;67692;51.074;-1.790;2023-08-08T00:13:26;101265.53;;;15.16;67.93
78407;BME280;67692;51.074;-1.790;2023-08-08T00:15:53;101266.03;;;15.22;67.61
78407;BME280;67692;51.074;-1.790;2023-08-08T00:18:19;101269.09;;;15.15;67.60
78407;BME280;67692;51.074;-1.790;2023-08-08T00:20:46;101267.34;;;15.05;67.74
78407;BME280;67692;51.074;-1.790;2023-08-08T00:23:13;101260.44;;;15.04;68.32
78407;BME280;67692;51.074;-1.790;2023-08-08T00:25:41;101270.06;;;15.03;68.34
78407;BME280;67692;51.074;-1.790;2023-08-08T00:28:07;101265.56;;;15.05;68.24
78407;BME280;67692;51.074;-1.790;2023-08-08T00:30:34;101260.34;;;14.94;68.27
78407;BME280;67692;51.074;-1.790;2023-08-08T00:33:01;101266.28;;;14.85;68.96
78407;BME280;67692;51.074;-1.790;2023-08-08T00:35:27;101275.88;;;14.84;68.77
78407;BME280;67692;51.074;-1.790;2023-08-08T00:37:54;101263.91;;;14.82;68.92
78407;BME280;67692;51.074;-1.790;2023-08-08T00:40:20;101263.91;;;14.82;69.30
78407;BME280;67692;51.074;-1.790;2023-08-08T00:42:48;101274.59;;;14.90;69.12
78407;BME280;67692;51.074;-1.790;2023-08-08T00:45:15;101262.47;;;14.89;68.88
78407;BME280;67692;51.074;-1.790;2023-08-08T00:47:41;101269.13;;;14.82;69.38
78407;BME280;67692;51.074;-1.790;2023-08-08T00:50:09;101266.28;;;14.85;69.40
78407;BME280;67692;51.074;-1.790;2023-08-08T00:52:37;101269.38;;;14.90;68.93
78407;BME280;67692;51.074;-1.790;2023-08-08T00:55:05;101264.88;;;14.92;68.77
78407;BME280;67692;51.074;-1.790;2023-08-08T00:57:33;101253.00;;;14.88;68.87
78407;BME280;67692;51.074;-1.790;2023-08-08T01:00:06;101253.38;;;14.83;68.97
78407;BME280;67692;51.074;-1.790;2023-08-08T01:02:33;101243.88;;;14.82;69.31
78407;BME280;67692;51.074;-1.790;2023-08-08T01:05:00;101239.94;;;14.88;69.48
78407;BME280;67692;51.074;-1.790;2023-08-08T01:07:30;101231.66;;;14.94;68.64
78407;BME280;67692;51.074;-1.790;2023-08-08T01:10:04;101239.25;;;14.97;68.89
78407;BME280;67692;51.074;-1.790;2023-08-08T01:12:36;101240.06;;;14.98;68.96
78407;BME280;67692;51.074;-1.790;2023-08-08T01:15:07;101232.59;;;15.04;68.69
78407;BME280;67692;51.074;-1.790;2023-08-08T01:17:34;101227.38;;;15.04;69.17
78407;BME280;67692;51.074;-1.790;2023-08-08T01:20:02;101217.41;;;15.09;68.69
78407;BME280;67692;51.074;-1.790;2023-08-08T01:22:43;101213.59;;;15.13;69.09
78407;BME280;67692;51.074;-1.790;2023-08-08T01:25:13;101199.59;;;15.14;69.19
78407;BME280;67692;51.074;-1.790;2023-08-08T01:27:40;101198.66;;;15.15;68.84
78407;BME280;67692;51.074;-1.790;2023-08-08T01:30:07;101210.03;;;15.14;69.07
78407;BME280;67692;51.074;-1.790;2023-08-08T01:32:34;101213.13;;;15.20;69.38
78407;BME280;67692;51.074;-1.790;2023-08-08T01:35:01;101213.13;;;15.20;68.99
78407;BME280;67692;51.074;-1.790;2023-08-08T01:37:31;101209.09;;;15.15;69.24
78407;BME280;67692;51.074;-1.790;2023-08-08T01:40:00;101213.34;;;15.16;69.38
78407;BME280;67692;51.074;-1.790;2023-08-08T01:42:29;101209.34;;;15.12;69.45
78407;BME280;67692;51.074;-1.790;2023-08-08T01:44:56;101207.56;;;15.13;69.44
78407;BME280;67692;51.074;-1.790;2023-08-08T01:47:23;101215.25;;;15.14;69.85
78407;BME280;67692;51.074;-1.790;2023-08-08T01:49:50;101222.38;;;15.12;69.08
78407;BME280;67692;51.074;-1.790;2023-08-08T01:52:17;101216.72;;;15.07;68.95
78407;BME280;67692;51.074;-1.790;2023-08-08T01:54:43;101215.91;;;14.96;69.45
78407;BME280;67692;51.074;-1.790;2023-08-08T01:57:10;101202.72;;;14.97;69.31
78407;BME280;67692;51.074;-1.790;2023-08-08T01:59:38;101201.44;;;14.92;69.04
78407;BME280;67692;51.074;-1.790;2023-08-08T02:02:05;101202.75;;;14.86;69.69
78407;BME280;67692;51.074;-1.790;2023-08-08T02:04:31;101196.56;;;14.87;69.74
78407;BME280;67692;51.074;-1.790;2023-08-08T02:06:58;101202.28;;;14.81;69.68
78407;BME280;67692;51.074;-1.790;2023-08-08T02:09:24;101198.38;;;14.75;70.08
78407;BME280;67692;51.074;-1.790;2023-08-08T02:11:52;101189.84;;;14.73;69.74
78407;BME280;67692;51.074;-1.790;2023-08-08T02:14:18;101194.84;;;14.76;70.04
78407;BME280;67692;51.074;-1.790;2023-08-08T02:16:46;101198.03;;;14.69;70.14
78407;BME280;67692;51.074;-1.790;2023-08-08T02:19:13;101190.44;;;14.66;70.45
78407;BME280;67692;51.074;-1.790;2023-08-08T02:21:41;101196.50;;;14.66;70.32
78407;BME280;67692;51.074;-1.790;2023-08-08T02:24:08;101195.91;;;14.63;70.73
78407;BME280;67692;51.074;-1.790;2023-08-08T02:26:34;101185.25;;;14.54;70.85
78407;BME280;67692;51.074;-1.790;2023-08-08T02:29:01;101187.72;;;14.56;71.20
78407;BME280;67692;51.074;-1.790;2023-08-08T02:31:28;101179.56;;;14.49;71.63
78407;BME280;67692;51.074;-1.790;2023-08-08T02:33:55;101177.78;;;14.50;71.72
78407;BME280;67692;51.074;-1.790;2023-08-08T02:36:22;101175.06;;;14.51;71.97
78407;BME280;67692;51.074;-1.790;2023-08-08T02:38:49;101177.53;;;14.53;72.03
78407;BME280;67692;51.074;-1.790;2023-08-08T02:41:18;101182.38;;;14.57;71.78
78407;BME280;67692;51.074;-1.790;2023-08-08T02:43:45;101179.78;;;14.57;71.89
78407;BME280;67692;51.074;-1.790;2023-08-08T02:46:12;101173.41;;;14.62;72.09
78407;BME280;67692;51.074;-1.790;2023-08-08T02:48:38;101179.53;;;14.61;71.60
78407;BME280;67692;51.074;-1.790;2023-08-08T02:51:06;101180.97;;;14.65;71.63
78407;BME280;67692;51.074;-1.790;2023-08-08T02:53:33;101179.06;;;14.67;71.57
78407;BME280;67692;51.074;-1.790;2023-08-08T02:55:59;101178.13;;;14.68;71.51
78407;BME280;67692;51.074;-1.790;2023-08-08T02:58:26;101173.63;;;14.70;71.34
78407;BME280;67692;51.074;-1.790;2023-08-08T03:00:53;101177.41;;;14.66;71.71
78407;BME280;67692;51.074;-1.790;2023-08-08T03:03:19;101176.59;;;14.65;71.63
78407;BME280;67692;51.074;-1.790;2023-08-08T03:05:46;101179.06;;;14.67;71.75
78407;BME280;67692;51.074;-1.790;2023-08-08T03:08:14;101174.19;;;14.73;71.49
78407;BME280;67692;51.074;-1.790;2023-08-08T03:10:40;101168.16;;;14.73;71.27
78407;BME280;67692;51.074;-1.790;2023-08-08T03:13:07;101168.97;;;14.73;71.68
78407;BME280;67692;51.074;-1.790;2023-08-08T03:15:34;101170.28;;;14.79;71.58
78407;BME280;67692;51.074;-1.790;2023-08-08T03:18:01;101175.38;;;14.80;71.93
78407;BME280;67692;51.074;-1.790;2023-08-08T03:20:28;101167.00;;;14.77;71.61
78407;BME280;67692;51.074;-1.790;2023-08-08T03:22:55;101181.31;;;14.82;71.79
78407;BME280;67692;51.074;-1.790;2023-08-08T03:25:23;101172.16;;;14.88;71.34
78407;BME280;67692;51.074;-1.790;2023-08-08T03:27:50;101171.13;;;14.91;71.49
78407;BME280;67692;51.074;-1.790;2023-08-08T03:30:16;101168.38;;;14.92;71.12
78407;BME280;67692;51.074;-1.790;2023-08-08T03:32:43;101174.63;;;14.89;71.61
78407;BME280;67692;51.074;-1.790;2023-08-08T03:35:10;101176.78;;;14.96;71.31
78407;BME280;67692;51.074;-1.790;2023-08-08T03:37:36;101176.66;;;14.97;71.26
78407;BME280;67692;51.074;-1.790;2023-08-08T03:40:04;101176.66;;;14.97;71.49
78407;BME280;67692;51.074;-1.790;2023-08-08T03:42:32;101175.69;;;14.98;71.58
78407;BME280;67692;51.074;-1.790;2023-08-08T03:44:58;101184.94;;;15.02;71.69
78407;BME280;67692;51.074;-1.790;2023-08-08T03:47:25;101176.16;;;15.03;71.45
78407;BME280;67692;51.074;-1.790;2023-08-08T03:49:52;101169.53;;;14.99;71.69
78407;BME280;67692;51.074;-1.790;2023-08-08T03:52:20;101165.97;;;15.00;71.31
78407;BME280;67692;51.074;-1.790;2023-08-08T03:54:47;101163.84;;;15.05;70.98
78407;BME280;67692;51.074;-1.790;2023-08-08T03:57:13;101163.13;;;15.03;70.97
78407;BME280;67692;51.074;-1.790;2023-08-08T03:59:41;101160.50;;;15.03;70.93
78407;BME280;67692;51.074;-1.790;2023-08-08T04:02:08;101167.38;;;15.04;71.01
78407;BME280;67692;51.074;-1.790;2023-08-08T04:04:34;101158.16;;;15.00;71.17
78407;BME280;67692;51.074;-1.790;2023-08-08T04:07:01;101161.47;;;15.02;71.19
78407;BME280;67692;51.074;-1.790;2023-08-08T04:09:28;101167.38;;;15.04;71.63
78407;BME280;67692;51.074;-1.790;2023-08-08T04:11:55;101160.28;;;15.06;71.05
78407;BME280;67692;51.074;-1.790;2023-08-08T04:14:21;101166.31;;;15.07;70.94
78407;BME280;67692;51.074;-1.790;2023-08-08T04:16:49;101166.09;;;14.99;71.00
78407;BME280;67692;51.074;-1.790;2023-08-08T04:19:16;101166.00;;;14.89;70.87
78407;BME280;67692;51.074;-1.790;2023-08-08T04:21:43;101158.78;;;14.81;71.39
78407;BME280;67692;51.074;-1.790;2023-08-08T04:24:09;101158.91;;;14.80;71.76
78407;BME280;67692;51.074;-1.790;2023-08-08T04:26:37;101156.66;;;14.75;71.91
78407;BME280;67692;51.074;-1.790;2023-08-08T04:29:05;101162.22;;;14.82;72.03
78407;BME280;67692;51.074;-1.790;2023-08-08T04:31:31;101156.88;;;14.83;72.33
78407;BME280;67692;51.074;-1.790;2023-08-08T04:34:00;101152.03;;;14.79;72.29
78407;BME280;67692;51.074;-1.790;2023-08-08T04:36:26;101155.81;;;14.86;72.23
78407;BME280;67692;51.074;-1.790;2023-08-08T04:38:53;101160.31;;;14.84;72.39
78407;BME280;67692;51.074;-1.790;2023-08-08T04:41:20;101157.59;;;14.85;72.24
78407;BME280;67692;51.074;-1.790;2023-08-08T04:43:46;101147.66;;;14.91;72.21
78407;BME280;67692;51.074;-1.790;2023-08-08T04:46:13;101146.31;;;14.96;72.06
78407;BME280;67692;51.074;-1.790;2023-08-08T04:48:39;101145.94;;;15.01;72.24
78407;BME280;67692;51.074;-1.790;2023-08-08T04:51:08;101150.06;;;15.03;72.13
78407;BME280;67692;51.074;-1.790;2023-08-08T04:53:34;101151.63;;;15.06;72.20
78407;BME280;67692;51.074;-1.790;2023-08-08T04:56:01;101146.28;;;15.07;72.46
78407;BME280;67692;51.074;-1.790;2023-08-08T04:58:28;101144.63;;;15.06;72.15
78407;BME280;67692;51.074;-1.790;2023-08-08T05:00:55;101146.50;;;15.04;72.13
78407;BME280;67692;51.074;-1.790;2023-08-08T05:03:22;101150.69;;;15.07;72.53
78407;BME280;67692;51.074;-1.790;2023-08-08T05:05:48;101142.03;;;15.06;72.28
78407;BME280;67692;51.074;-1.790;2023-08-08T05:08:16;101125.06;;;15.01;71.98
78407;BME280;67692;51.074;-1.790;2023-08-08T05:10:43;101125.44;;;14.96;72.83
78407;BME280;67692;51.074;-1.790;2023-08-08T05:13:10;101118.31;;;14.98;72.99
78407;BME280;67692;51.074;-1.790;2023-08-08T05:15:36;101123.91;;;14.94;72.99
78407;BME280;67692;51.074;-1.790;2023-08-08T05:18:04;101112.28;;;14.98;73.03
78407;BME280;67692;51.074;-1.790;2023-08-08T05:20:30;101120.56;;;15.03;73.01
78407;BME280;67692;51.074;-1.790;2023-08-08T05:22:57;101113.34;;;15.06;72.73
78407;BME280;67692;51.074;-1.790;2023-08-08T05:25:25;101116.06;;;15.05;72.60
78407;BME280;67692;51.074;-1.790;2023-08-08T05:27:52;101102.91;;;15.06;72.75
78407;BME280;67692;51.074;-1.790;2023-08-08T05:30:19;101110.34;;;15.11;72.16
78407;BME280;67692;51.074;-1.790;2023-08-08T05:32:46;101117.22;;;15.12;72.74
78407;BME280;67692;51.074;-1.790;2023-08-08T05:35:13;101115.88;;;15.17;72.99
78407;BME280;67692;51.074;-1.790;2023-08-08T05:37:39;101118.38;;;15.19;72.85
78407;BME280;67692;51.074;-1.790;2023-08-08T05:40:07;101120.78;;;15.11;72.96
78407;BME280;67692;51.074;-1.790;2023-08-08T05:42:37;101121.34;;;15.14;73.18
78407;BME280;67692;51.074;-1.790;2023-08-08T05:45:04;101122.19;;;15.15;73.41
78407;BME280;67692;51.074;-1.790;2023-08-08T05:47:31;101119.56;;;15.15;73.42
78407;BME280;67692;51.074;-1.790;2023-08-08T05:49:58;101119.00;;;15.11;73.25
78407;BME280;67692;51.074;-1.790;2023-08-08T05:52:25;101118.63;;;15.16;73.78
78407;BME280;67692;51.074;-1.790;2023-08-08T05:54:51;101112.56;;;15.15;73.17
78407;BME280;67692;51.074;-1.790;2023-08-08T05:57:18;101121.34;;;15.14;73.04
78407;BME280;67692;51.074;-1.790;2023-08-08T05:59:48;101117.53;;;15.18;73.55
78407;BME280;67692;51.074;-1.790;2023-08-08T06:02:15;101121.59;;;15.11;73.80
78407;BME280;67692;51.074;-1.790;2023-08-08T06:04:42;101117.53;;;15.18;73.81
78407;BME280;67692;51.074;-1.790;2023-08-08T06:07:09;101115.78;;;15.19;73.58
78407;BME280;67692;51.074;-1.790;2023-08-08T06:09:36;101119.78;;;15.23;73.74
78407;BME280;67692;51.074;-1.790;2023-08-08T06:12:03;101120.09;;;15.30;73.33
78407;BME280;67692;51.074;-1.790;2023-08-08T06:14:30;101117.34;;;15.31;73.17
78407;BME280;67692;51.074;-1.790;2023-08-08T06:16:58;101119.34;;;15.39;73.53
78407;BME280;67692;51.074;-1.790;2023-08-08T06:19:25;101124.31;;;15.42;73.83
78407;BME280;67692;51.074;-1.790;2023-08-08T06:21:51;101119.09;;;15.42;73.44
78407;BME280;67692;51.074;-1.790;2023-08-08T06:24:18;101113.75;;;15.43;73.68
78407;BME280;67692;51.074;-1.790;2023-08-08T06:26:45;101117.88;;;15.46;73.57
78407;BME280;67692;51.074;-1.790;2023-08-08T06:29:11;101116.09;;;15.46;73.78
78407;BME280;67692;51.074;-1.790;2023-08-08T06:31:39;101114.78;;;15.52;73.89
78407;BME280;67692;51.074;-1.790;2023-08-08T06:34:07;101112.72;;;15.56;74.04
78407;BME280;67692;51.074;-1.790;2023-08-08T06:36:34;101099.00;;;15.54;73.76
78407;BME280;67692;51.074;-1.790;2023-08-08T06:39:01;101105.72;;;15.56;74.07
78407;BME280;67692;51.074;-1.790;2023-08-08T06:41:28;101102.44;;;15.54;73.80
78407;BME280;67692;51.074;-1.790;2023-08-08T06:43:55;101104.53;;;15.60;74.51
78407;BME280;67692;51.074;-1.790;2023-08-08T06:46:21;101105.69;;;15.67;74.39
78407;BME280;67692;51.074;-1.790;2023-08-08T06:48:49;101105.31;;;15.72;74.17
78407;BME280;67692;51.074;-1.790;2023-08-08T06:51:19;101102.31;;;15.76;74.56
78407;BME280;67692;51.074;-1.790;2023-08-08T06:53:46;101108.25;;;15.79;74.27
78407;BME280;67692;51.074;-1.790;2023-08-08T06:56:12;101110.59;;;15.82;74.47
78407;BME280;67692;51.074;-1.790;2023-08-08T06:58:39;101101.53;;;15.86;74.39
78407;BME280;67692;51.074;-1.790;2023-08-08T07:01:06;101111.72;;;15.89;74.47
78407;BME280;67692;51.074;-1.790;2023-08-08T07:03:32;101104.16;;;15.86;74.70
78407;BME280;67692;51.074;-1.790;2023-08-08T07:05:59;101109.25;;;15.87;74.25
78407;BME280;67692;51.074;-1.790;2023-08-08T07:08:27;101105.53;;;15.90;74.74
78407;BME280;67692;51.074;-1.790;2023-08-08T07:10:54;101105.44;;;15.91;74.67
78407;BME280;67692;51.074;-1.790;2023-08-08T07:13:21;101099.13;;;15.94;74.61
78407;BME280;67692;51.074;-1.790;2023-08-08T07:15:48;101102.84;;;16.01;74.76
78407;BME280;67692;51.074;-1.790;2023-08-08T07:18:14;101097.22;;;16.05;74.19
78407;BME280;67692;51.074;-1.790;2023-08-08T07:20:41;101088.31;;;16.08;74.68
78407;BME280;67692;51.074;-1.790;2023-08-08T07:23:08;101091.09;;;16.16;74.51
78407;BME280;67692;51.074;-1.790;2023-08-08T07:25:35;101070.88;;;16.18;74.47
78407;BME280;67692;51.074;-1.790;2023-08-08T07:28:02;101073.94;;;16.23;74.49
78407;BME280;67692;51.074;-1.790;2023-08-08T07:30:29;101069.25;;;16.27;74.77
78407;BME280;67692;51.074;-1.790;2023-08-08T07:32:55;101072.75;;;16.37;74.65
78407;BME280;67692;51.074;-1.790;2023-08-08T07:35:22;101071.22;;;16.44;74.49
78407;BME280;67692;51.074;-1.790;2023-08-08T07:37:49;101075.78;;;16.52;74.80
78407;BME280;67692;51.074;-1.790;2023-08-08T07:40:16;101071.25;;;16.54;74.88
78407;BME280;67692;51.074;-1.790;2023-08-08T07:42:46;101068.38;;;16.57;74.76
78407;BME280;67692;51.074;-1.790;2023-08-08T07:45:12;101067.25;;;16.59;74.37
78407;BME280;67692;51.074;-1.790;2023-08-08T07:47:39;101074.97;;;16.61;74.54
78407;BME280;67692;51.074;-1.790;2023-08-08T07:50:07;101075.94;;;16.60;74.61
78407;BME280;67692;51.074;-1.790;2023-08-08T07:52:34;101059.41;;;16.59;75.04
78407;BME280;67692;51.074;-1.790;2023-08-08T07:55:01;101069.06;;;16.59;75.46
78407;BME280;67692;51.074;-1.790;2023-08-08T07:57:28;101065.47;;;16.60;75.50
78407;BME280;67692;51.074;-1.790;2023-08-08T07:59:56;101061.06;;;16.60;75.98
78407;BME280;67692;51.074;-1.790;2023-08-08T08:02:23;101050.22;;;16.65;76.02
78407;BME280;67692;51.074;-1.790;2023-08-08T08:04:50;101045.16;;;16.73;76.14
78407;BME280;67692;51.074;-1.790;2023-08-08T08:07:17;101049.97;;;16.78;76.26
78407;BME280;67692;51.074;-1.790;2023-08-08T08:09:43;101042.69;;;16.81;76.08
78407;BME280;67692;51.074;-1.790;2023-08-08T08:12:10;101048.03;;;16.89;76.12
78407;BME280;67692;51.074;-1.790;2023-08-08T08:14:37;101050.13;;;16.95;75.74
78407;BME280;67692;51.074;-1.790;2023-08-08T08:17:05;101053.44;;;16.98;75.46
78407;BME280;67692;51.074;-1.790;2023-08-08T08:19:31;101055.91;;;16.99;75.22
78407;BME280;67692;51.074;-1.790;2023-08-08T08:21:58;101050.94;;;17.06;75.59
78407;BME280;67692;51.074;-1.790;2023-08-08T08:24:25;101053.16;;;17.10;75.35
78407;BME280;67692;51.074;-1.790;2023-08-08T08:26:51;101056.59;;;17.11;75.46
78407;BME280;67692;51.074;-1.790;2023-08-08T08:29:18;101053.84;;;17.12;75.56
78407;BME280;67692;51.074;-1.790;2023-08-08T08:31:44;101055.34;;;17.15;75.46
78407;BME280;67692;51.074;-1.790;2023-08-08T08:34:14;101059.47;;;17.17;75.72
78407;BME280;67692;51.074;-1.790;2023-08-08T08:36:40;101048.19;;;17.17;75.32
78407;BME280;67692;51.074;-1.790;2023-08-08T08:39:07;101052.16;;;17.21;75.45
78407;BME280;67692;51.074;-1.790;2023-08-08T08:41:35;101048.03;;;17.18;75.35
78407;BME280;67692;51.074;-1.790;2023-08-08T08:44:03;101047.06;;;17.19;75.43
78407;BME280;67692;51.074;-1.790;2023-08-08T08:46:32;101044.59;;;17.18;75.76
78407;BME280;67692;51.074;-1.790;2023-08-08T08:49:02;101048.19;;;17.17;76.08
78407;BME280;67692;51.074;-1.790;2023-08-08T08:51:31;101050.78;;;17.17;76.03
78407;BME280;67692;51.074;-1.790;2023-08-08T08:53:58;101043.91;;;17.16;75.91
78407;BME280;67692;51.074;-1.790;2023-08-08T08:56:25;101036.34;;;17.13;76.08
78407;BME280;67692;51.074;-1.790;2023-08-08T08:58:52;101037.03;;;17.15;76.42
78407;BME280;67692;51.074;-1.790;2023-08-08T09:01:19;101030.81;;;17.16;76.66
78407;BME280;67692;51.074;-1.790;2023-08-08T09:03:47;101034.13;;;17.18;76.58
78407;BME280;67692;51.074;-1.790;2023-08-08T09:06:14;101030.00;;;17.25;76.76
78407;BME280;67692;51.074;-1.790;2023-08-08T09:08:43;101026.25;;;17.28;76.13
78407;BME280;67692;51.074;-1.790;2023-08-08T09:11:12;101028.97;;;17.36;76.22
78407;BME280;67692;51.074;-1.790;2023-08-08T09:13:39;101035.47;;;17.41;75.52
78407;BME280;67692;51.074;-1.790;2023-08-08T09:16:07;101033.09;;;17.48;75.01
78407;BME280;67692;51.074;-1.790;2023-08-08T09:18:34;101028.00;;;17.46;75.40
78407;BME280;67692;51.074;-1.790;2023-08-08T09:21:04;101027.03;;;17.47;75.61
78407;BME280;67692;51.074;-1.790;2023-08-08T09:23:31;101027.19;;;17.46;75.38
78407;BME280;67692;51.074;-1.790;2023-08-08T09:25:59;101017.25;;;17.49;75.41
78407;BME280;67692;51.074;-1.790;2023-08-08T09:28:25;101016.69;;;17.55;75.74
78407;BME280;67692;51.074;-1.790;2023-08-08T09:30:52;101014.88;;;17.56;75.60
78407;BME280;67692;51.074;-1.790;2023-08-08T09:33:19;101016.41;;;17.59;75.34
78407;BME280;67692;51.074;-1.790;2023-08-08T09:35:45;101016.09;;;17.62;75.44
78407;BME280;67692;51.074;-1.790;2023-08-08T09:38:12;101026.28;;;17.65;75.39
78407;BME280;67692;51.074;-1.790;2023-08-08T09:40:39;101021.03;;;17.65;75.40
78407;BME280;67692;51.074;-1.790;2023-08-08T09:43:08;101010.88;;;17.62;75.73
78407;BME280;67692;51.074;-1.790;2023-08-08T09:45:37;101007.31;;;17.53;75.75
78407;BME280;67692;51.074;-1.790;2023-08-08T09:48:05;101005.09;;;17.58;75.79
78407;BME280;67692;51.074;-1.790;2023-08-08T09:50:32;100998.22;;;17.57;75.81
78407;BME280;67692;51.074;-1.790;2023-08-08T09:53:01;100996.72;;;17.54;75.85
78407;BME280;67692;51.074;-1.790;2023-08-08T09:55:28;101000.69;;;17.59;76.06
78407;BME280;67692;51.074;-1.790;2023-08-08T09:57:57;100989.53;;;17.57;76.38
78407;BME280;67692;51.074;-1.790;2023-08-08T10:00:25;100989.16;;;17.51;76.02
78407;BME280;67692;51.074;-1.790;2023-08-08T10:02:53;100984.16;;;17.48;76.12
78407;BME280;67692;51.074;-1.790;2023-08-08T10:05:21;100992.72;;;17.50;75.82
78407;BME280;67692;51.074;-1.790;2023-08-08T10:07:48;100984.75;;;17.42;75.73
78407;BME280;67692;51.074;-1.790;2023-08-08T10:10:15;100994.41;;;17.42;75.60
78407;BME280;67692;51.074;-1.790;2023-08-08T10:12:44;100975.94;;;17.43;75.56
78407;BME280;67692;51.074;-1.790;2023-08-08T10:15:11;100981.47;;;17.40;75.53
78407;BME280;67692;51.074;-1.790;2023-08-08T10:17:40;100980.88;;;17.46;75.48
78407;BME280;67692;51.074;-1.790;2023-08-08T10:20:10;100982.53;;;17.47;75.58
78407;BME280;67692;51.074;-1.790;2023-08-08T10:22:41;100987.50;;;17.50;75.35
78407;BME280;67692;51.074;-1.790;2023-08-08T10:25:08;100973.00;;;17.56;75.39
78407;BME280;67692;51.074;-1.790;2023-08-08T10:27:36;100970.22;;;17.58;75.43
78407;BME280;67692;51.074;-1.790;2023-08-08T10:30:05;100970.53;;;17.54;75.67
78407;BME280;67692;51.074;-1.790;2023-08-08T10:32:43;100984.28;;;17.57;75.82
78407;BME280;67692;51.074;-1.790;2023-08-08T10:35:12;100969.25;;;17.59;75.85
78407;BME280;67692;51.074;-1.790;2023-08-08T10:37:39;100977.25;;;17.57;75.69
78407;BME280;67692;51.074;-1.790;2023-08-08T10:40:07;100965.13;;;17.56;75.92
78407;BME280;67692;51.074;-1.790;2023-08-08T10:42:45;100970.91;;;17.60;75.88
78407;BME280;67692;51.074;-1.790;2023-08-08T10:45:13;100970.91;;;17.60;75.99
78407;BME280;67692;51.074;-1.790;2023-08-08T10:47:43;100970.59;;;17.63;75.81
78407;BME280;67692;51.074;-1.790;2023-08-08T10:50:11;100958.78;;;17.59;76.23
78407;BME280;67692;51.074;-1.790;2023-08-08T10:52:49;100964.16;;;17.57;76.25
78407;BME280;67692;51.074;-1.790;2023-08-08T10:55:20;100957.13;;;17.58;76.09
78407;BME280;67692;51.074;-1.790;2023-08-08T10:57:53;100960.03;;;17.54;76.25
78407;BME280;67692;51.074;-1.790;2023-08-08T11:00:23;100957.97;;;17.58;76.72
78407;BME280;67692;51.074;-1.790;2023-08-08T11:02:53;100950.91;;;17.59;76.68
78407;BME280;67692;51.074;-1.790;2023-08-08T11:05:20;100948.31;;;17.68;76.62
78407;BME280;67692;51.074;-1.790;2023-08-08T11:07:47;100949.88;;;17.79;76.46
78407;BME280;67692;51.074;-1.790;2023-08-08T11:10:14;100957.84;;;17.87;76.27
78407;BME280;67692;51.074;-1.790;2023-08-08T11:12:41;100954.25;;;17.88;76.51
78407;BME280;67692;51.074;-1.790;2023-08-08T11:15:08;100954.94;;;17.90;76.33
78407;BME280;67692;51.074;-1.790;2023-08-08T11:17:36;100955.34;;;17.95;76.36
78407;BME280;67692;51.074;-1.790;2023-08-08T11:20:05;100965.88;;;18.03;76.24
78407;BME280;67692;51.074;-1.790;2023-08-08T11:22:32;100975.75;;;17.92;76.63
78407;BME280;67692;51.074;-1.790;2023-08-08T11:24:58;100972.06;;;17.84;76.96
78407;BME280;67692;51.074;-1.790;2023-08-08T11:27:29;100980.13;;;17.73;77.40
78407;BME280;67692;51.074;-1.790;2023-08-08T11:29:56;100984.38;;;17.74;78.03
78407;BME280;67692;51.074;-1.790;2023-08-08T11:32:23;100982.19;;;17.70;78.17
78407;BME280;67692;51.074;-1.790;2023-08-08T11:34:50;100973.38;;;17.71;78.17
78407;BME280;67692;51.074;-1.790;2023-08-08T11:37:18;100961.78;;;17.73;78.50
78407;BME280;67692;51.074;-1.790;2023-08-08T11:39:45;100957.88;;;17.77;78.61
78407;BME280;67692;51.074;-1.790;2023-08-08T11:42:12;100962.59;;;17.74;78.37
78407;BME280;67692;51.074;-1.790;2023-08-08T11:44:40;100953.47;;;17.78;78.67
78407;BME280;67692;51.074;-1.790;2023-08-08T11:47:07;100964.50;;;17.81;78.96
78407;BME280;67692;51.074;-1.790;2023-08-08T11:49:40;100955.81;;;17.81;78.90
78407;BME280;67692;51.074;-1.790;2023-08-08T11:52:07;100961.06;;;17.81;78.80
78407;BME280;67692;51.074;-1.790;2023-08-08T11:54:36;100955.97;;;17.79;79.16
78407;BME280;67692;51.074;-1.790;2023-08-08T11:57:03;100951.94;;;17.85;79.42
78407;BME280;67692;51.074;-1.790;2023-08-08T11:59:30;100949.38;;;17.93;80.47
78407;BME280;67692;51.074;-1.790;2023-08-08T12:01:57;100939.72;;;17.94;82.00
78407;BME280;67692;51.074;-1.790;2023-08-08T12:04:24;100940.44;;;17.96;82.68
78407;BME280;67692;51.074;-1.790;2023-08-08T12:07:00;100937.38;;;18.00;82.47
78407;BME280;67692;51.074;-1.790;2023-08-08T12:09:28;100941.63;;;18.01;82.43
78407;BME280;67692;51.074;-1.790;2023-08-08T12:11:59;100938.50;;;17.98;81.46
78407;BME280;67692;51.074;-1.790;2023-08-08T12:14:25;100941.78;;;18.00;82.12
78407;BME280;67692;51.074;-1.790;2023-08-08T12:16:53;100940.97;;;17.99;81.48
78407;BME280;67692;51.074;-1.790;2023-08-08T12:19:22;100938.19;;;18.01;81.87
78407;BME280;67692;51.074;-1.790;2023-08-08T12:21:49;100943.94;;;18.04;81.91
78407;BME280;67692;51.074;-1.790;2023-08-08T12:24:16;100952.06;;;18.11;81.88
78407;BME280;67692;51.074;-1.790;2023-08-08T12:26:43;100949.81;;;18.16;81.18
78407;BME280;67692;51.074;-1.790;2023-08-08T12:29:11;100941.94;;;18.16;81.10
78407;BME280;67692;51.074;-1.790;2023-08-08T12:31:38;100944.72;;;18.14;80.70
78407;BME280;67692;51.074;-1.790;2023-08-08T12:34:05;100936.19;;;18.12;80.56
78407;BME280;67692;51.074;-1.790;2023-08-08T12:36:33;100929.28;;;18.11;80.66
78407;BME280;67692;51.074;-1.790;2023-08-08T12:39:00;100934.31;;;18.23;80.54
78407;BME280;67692;51.074;-1.790;2023-08-08T12:41:26;100938.13;;;18.28;81.10